createdAt,value
2023-05-19T00:00:07.200Z,30.61
2023-05-19T00:02:33.818Z,30.58
2023-05-19T00:05:00.399Z,30.59
2023-05-19T00:07:26.801Z,30.59
2023-05-19T00:09:53.207Z,30.62
2023-05-19T00:12:19.641Z,30.59
2023-05-19T00:14:46.015Z,30.64
2023-05-19T00:17:12.429Z,30.59
2023-05-19T00:19:38.840Z,30.63
2023-05-19T00:22:05.267Z,30.65
2023-05-19T00:24:31.682Z,30.66
2023-05-19T00:26:58.150Z,30.63
2023-05-19T00:29:24.650Z,30.63
2023-05-19T00:31:51.112Z,30.65
2023-05-19T00:34:17.582Z,30.63
2023-05-19T00:36:43.990Z,30.63
2023-05-19T00:39:10.385Z,30.64
2023-05-19T00:41:36.829Z,30.66
2023-05-19T00:44:03.285Z,30.65
2023-05-19T00:46:29.738Z,30.65
2023-05-19T00:48:56.218Z,30.67
2023-05-19T00:51:22.690Z,30.65
2023-05-19T00:53:49.319Z,30.67
2023-05-19T00:56:15.926Z,30.67
2023-05-19T00:58:42.361Z,30.66
2023-05-19T01:01:08.820Z,30.67
2023-05-19T01:03:35.649Z,30.67
2023-05-19T01:06:02.374Z,30.69
2023-05-19T01:08:28.781Z,30.66
2023-05-19T01:10:55.240Z,30.68
2023-05-19T01:13:21.641Z,30.71
2023-05-19T01:15:48.038Z,30.67
2023-05-19T01:18:14.502Z,30.67
2023-05-19T01:20:40.886Z,30.69
2023-05-19T01:23:07.324Z,30.71
2023-05-19T01:25:33.736Z,30.70
2023-05-19T01:28:00.139Z,30.71
2023-05-19T01:30:26.548Z,30.68
2023-05-19T01:32:53.032Z,30.69
2023-05-19T01:35:19.463Z,30.64
2023-05-19T01:37:45.887Z,30.68
2023-05-19T01:40:12.340Z,30.67
2023-05-19T01:42:38.757Z,30.65
2023-05-19T01:45:05.282Z,30.66
2023-05-19T01:47:31.745Z,30.66
2023-05-19T01:49:58.188Z,30.68
2023-05-19T01:52:24.631Z,30.67
2023-05-19T01:54:51.017Z,30.69
2023-05-19T01:57:17.395Z,30.68
2023-05-19T01:59:43.915Z,30.67
2023-05-19T02:02:10.466Z,30.67
2023-05-19T02:04:36.894Z,30.70
2023-05-19T02:07:03.344Z,30.68
2023-05-19T02:09:29.773Z,30.71
2023-05-19T02:11:56.217Z,30.70
2023-05-19T02:14:22.610Z,30.67
2023-05-19T02:16:49.070Z,30.70
2023-05-19T02:19:15.549Z,30.68
2023-05-19T02:21:41.983Z,30.70
2023-05-19T02:24:08.442Z,30.68
2023-05-19T02:26:34.847Z,30.70
2023-05-19T02:29:01.233Z,30.68
2023-05-19T02:31:27.711Z,30.71
2023-05-19T02:33:54.143Z,30.70
2023-05-19T02:36:20.558Z,30.69
2023-05-19T02:38:47.023Z,30.70
2023-05-19T02:41:13.430Z,30.68
2023-05-19T02:43:39.820Z,30.67
2023-05-19T02:46:06.291Z,30.70
2023-05-19T02:48:32.682Z,30.69
2023-05-19T02:50:59.086Z,30.67
2023-05-19T02:53:25.595Z,30.68
2023-05-19T02:55:52.024Z,30.69
2023-05-19T02:58:18.454Z,30.73
2023-05-19T03:00:44.948Z,30.70
2023-05-19T03:03:11.400Z,30.68
2023-05-19T03:05:37.947Z,30.70
2023-05-19T03:08:04.369Z,30.67
2023-05-19T03:10:30.901Z,30.68
2023-05-19T03:12:57.451Z,30.68
2023-05-19T03:15:23.856Z,30.69
2023-05-19T03:17:50.429Z,30.69
2023-05-19T03:20:16.918Z,30.66
2023-05-19T03:22:43.351Z,30.70
2023-05-19T03:25:09.774Z,30.68
2023-05-19T03:27:36.185Z,30.67
2023-05-19T03:30:04.928Z,30.69
2023-05-19T03:32:33.007Z,30.70
2023-05-19T03:34:59.512Z,30.68
2023-05-19T03:37:25.937Z,30.73
2023-05-19T03:39:52.393Z,30.71
2023-05-19T03:42:18.792Z,30.69
2023-05-19T03:44:45.209Z,30.71
2023-05-19T03:47:11.673Z,30.68
2023-05-19T03:49:38.093Z,30.70
2023-05-19T03:52:04.469Z,30.71
2023-05-19T03:54:30.949Z,30.68
2023-05-19T03:56:57.366Z,30.72
2023-05-19T03:59:23.762Z,30.70
2023-05-19T04:01:50.237Z,30.67
2023-05-19T04:04:16.765Z,30.61
2023-05-19T04:06:43.236Z,30.59
2023-05-19T04:09:09.649Z,30.53
2023-05-19T04:11:36.042Z,30.49
2023-05-19T04:14:02.448Z,30.49
2023-05-19T04:16:29.031Z,30.49
2023-05-19T04:18:55.584Z,30.46
2023-05-19T04:21:22.031Z,30.40
2023-05-19T04:23:48.451Z,30.39
2023-05-19T04:26:14.846Z,30.38
2023-05-19T04:28:41.266Z,30.35
2023-05-19T04:31:07.753Z,30.39
2023-05-19T04:33:34.206Z,30.38
2023-05-19T04:36:00.671Z,30.32
2023-05-19T04:38:27.078Z,30.30
2023-05-19T04:40:53.468Z,30.31
2023-05-19T04:43:19.922Z,30.30
2023-05-19T04:45:46.329Z,30.29
2023-05-19T04:48:12.728Z,30.26
2023-05-19T04:50:39.146Z,30.27
2023-05-19T04:53:05.592Z,30.23
2023-05-19T04:55:32.107Z,30.23
2023-05-19T04:57:58.673Z,30.22
2023-05-19T05:00:25.143Z,30.22
2023-05-19T05:02:51.694Z,30.24
2023-05-19T05:05:18.227Z,30.25
2023-05-19T05:07:44.690Z,30.68
2023-05-19T05:10:11.128Z,30.49
2023-05-19T05:12:37.542Z,30.44
2023-05-19T05:15:04.049Z,30.39
2023-05-19T05:17:30.538Z,30.31
2023-05-19T05:19:56.965Z,30.30
2023-05-19T05:22:23.385Z,30.31
2023-05-19T05:24:49.808Z,30.24
2023-05-19T05:27:16.190Z,30.24
2023-05-19T05:29:42.655Z,30.20
2023-05-19T05:32:09.081Z,30.18
2023-05-19T05:34:35.585Z,30.21
2023-05-19T05:37:02.019Z,30.17
2023-05-19T05:39:28.421Z,30.18
2023-05-19T05:41:54.839Z,30.16
2023-05-19T05:44:21.258Z,30.16
2023-05-19T05:46:47.664Z,30.16
2023-05-19T05:49:14.100Z,30.13
2023-05-19T05:51:40.739Z,30.16
2023-05-19T05:54:08.051Z,30.15
2023-05-19T05:56:34.455Z,30.13
2023-05-19T05:59:00.886Z,30.07
2023-05-19T06:01:27.301Z,30.05
2023-05-19T06:03:53.708Z,30.04
2023-05-19T06:06:20.109Z,29.99
2023-05-19T06:08:46.565Z,30.00
2023-05-19T06:11:13.005Z,29.99
2023-05-19T06:13:39.550Z,29.92
2023-05-19T06:16:06.011Z,29.92
2023-05-19T06:18:32.478Z,29.90
2023-05-19T06:20:58.890Z,29.89
2023-05-19T06:23:25.345Z,29.84
2023-05-19T06:25:51.773Z,29.83
2023-05-19T06:28:18.169Z,29.82
2023-05-19T06:30:44.599Z,29.77
2023-05-19T06:33:11.065Z,29.81
2023-05-19T06:35:37.512Z,29.87
2023-05-19T06:38:03.972Z,29.85
2023-05-19T06:40:30.590Z,29.87
2023-05-19T06:42:57.208Z,29.87
2023-05-19T06:45:23.713Z,29.82
2023-05-19T06:47:50.163Z,29.85
2023-05-19T06:50:16.567Z,29.82
2023-05-19T06:52:43.014Z,29.80
2023-05-19T06:55:09.420Z,29.80
2023-05-19T06:57:35.860Z,29.79
2023-05-19T07:00:02.314Z,29.82
2023-05-19T07:02:28.789Z,29.81
2023-05-19T07:04:55.304Z,29.86
2023-05-19T07:07:21.731Z,29.82
2023-05-19T07:09:48.132Z,29.85
2023-05-19T07:12:14.577Z,29.83
2023-05-19T07:14:41.037Z,29.90
2023-05-19T07:17:07.438Z,29.84
2023-05-19T07:19:33.844Z,29.90
2023-05-19T07:22:00.318Z,29.92
2023-05-19T07:24:26.755Z,29.87
2023-05-19T07:26:53.200Z,29.88
2023-05-19T07:29:19.657Z,29.88
2023-05-19T07:31:46.176Z,29.90
2023-05-19T07:34:12.624Z,29.88
2023-05-19T07:36:39.067Z,29.89
2023-05-19T07:39:05.536Z,29.90
2023-05-19T07:41:33.191Z,29.89
2023-05-19T07:44:00.764Z,29.93
2023-05-19T07:46:27.232Z,29.92
2023-05-19T07:48:53.667Z,29.94
2023-05-19T07:51:20.089Z,29.92
2023-05-19T07:53:46.467Z,29.90
2023-05-19T07:56:12.909Z,29.88
2023-05-19T07:58:40.321Z,29.95
2023-05-19T08:01:06.725Z,29.95
2023-05-19T08:03:33.322Z,29.98
2023-05-19T08:05:59.812Z,29.97
2023-05-19T08:08:26.313Z,29.98
2023-05-19T08:10:52.737Z,30.00
2023-05-19T08:13:19.216Z,29.95
2023-05-19T08:15:45.636Z,30.01
2023-05-19T08:18:12.250Z,30.26
2023-05-19T08:20:38.888Z,30.19
2023-05-19T08:23:06.545Z,30.18
2023-05-19T08:25:33.005Z,30.18
2023-05-19T08:27:59.482Z,30.09
2023-05-19T08:30:26.218Z,30.07
2023-05-19T08:32:52.693Z,30.02
2023-05-19T08:35:19.565Z,30.02
2023-05-19T08:37:45.968Z,30.05
2023-05-19T08:40:12.374Z,30.02
2023-05-19T08:42:38.805Z,29.97
2023-05-19T08:45:05.209Z,29.93
2023-05-19T08:47:31.650Z,29.92
2023-05-19T08:49:58.077Z,29.89
2023-05-19T08:52:24.489Z,29.92
2023-05-19T08:54:50.980Z,29.92
2023-05-19T08:57:17.405Z,29.89
2023-05-19T08:59:43.902Z,29.92
2023-05-19T09:02:10.360Z,29.92
2023-05-19T09:04:36.908Z,29.87
2023-05-19T09:07:03.458Z,29.86
2023-05-19T09:09:29.893Z,29.88
2023-05-19T09:11:56.314Z,29.89
2023-05-19T09:14:22.783Z,29.92
2023-05-19T09:16:49.203Z,29.92
2023-05-19T09:19:15.738Z,29.92
2023-05-19T09:21:42.211Z,29.90
2023-05-19T09:24:08.714Z,29.95
2023-05-19T09:26:35.148Z,29.92
2023-05-19T09:29:01.649Z,29.92
2023-05-19T09:31:28.043Z,29.96
2023-05-19T09:33:54.512Z,29.96
2023-05-19T09:36:20.972Z,29.98
2023-05-19T09:38:47.384Z,29.95
2023-05-19T09:41:13.795Z,29.92
2023-05-19T09:43:40.293Z,29.93
2023-05-19T09:46:06.979Z,29.97
2023-05-19T09:48:33.616Z,30.00
2023-05-19T09:51:00.053Z,29.96
2023-05-19T09:53:26.604Z,29.96
2023-05-19T09:55:53.042Z,29.96
2023-05-19T09:58:19.534Z,30.00
2023-05-19T10:00:45.952Z,30.04
2023-05-19T10:03:12.395Z,30.10
2023-05-19T10:05:38.907Z,30.05
2023-05-19T10:08:05.313Z,30.05
2023-05-19T10:10:31.754Z,30.05
2023-05-19T10:12:58.202Z,30.04
2023-05-19T10:15:24.643Z,30.02
2023-05-19T10:17:51.101Z,30.01
2023-05-19T10:20:17.616Z,30.01
2023-05-19T10:22:44.023Z,30.08
2023-05-19T10:25:10.468Z,30.02
2023-05-19T10:27:36.958Z,30.04
2023-05-19T10:30:03.354Z,30.02
2023-05-19T10:32:29.926Z,30.04
2023-05-19T10:34:56.546Z,30.07
2023-05-19T10:37:22.947Z,30.01
2023-05-19T10:39:49.349Z,30.11
2023-05-19T10:42:15.762Z,30.01
2023-05-19T10:44:42.195Z,30.02
2023-05-19T10:47:08.700Z,29.95
2023-05-19T10:49:35.273Z,30.02
2023-05-19T10:52:01.699Z,30.03
2023-05-19T10:54:28.129Z,30.05
2023-05-19T10:56:54.562Z,30.30
2023-05-19T10:59:20.957Z,30.23
2023-05-19T11:01:47.396Z,30.17
2023-05-19T11:04:14.046Z,30.16
2023-05-19T11:06:40.545Z,30.18
2023-05-19T11:09:07.015Z,30.16
2023-05-19T11:11:34.371Z,30.11
2023-05-19T11:14:01.284Z,30.09
2023-05-19T11:16:27.736Z,30.06
2023-05-19T11:18:54.248Z,30.08
2023-05-19T11:21:20.657Z,30.06
2023-05-19T11:23:47.141Z,30.04
2023-05-19T11:26:13.609Z,30.02
2023-05-19T11:28:40.034Z,29.98
2023-05-19T11:31:06.466Z,30.00
2023-05-19T11:33:32.902Z,29.97
2023-05-19T11:35:59.397Z,30.00
2023-05-19T11:38:25.818Z,29.96
2023-05-19T11:40:52.272Z,30.03
2023-05-19T11:43:18.747Z,30.06
2023-05-19T11:45:45.239Z,30.07
2023-05-19T11:48:11.733Z,30.01
2023-05-19T11:50:38.286Z,30.02
2023-05-19T11:53:04.916Z,30.00
2023-05-19T11:55:31.798Z,30.00
2023-05-19T11:58:03.855Z,30.01
2023-05-19T12:00:31.353Z,29.98
2023-05-19T12:02:57.922Z,30.01
2023-05-19T12:05:24.511Z,30.02
2023-05-19T12:07:51.002Z,29.99
2023-05-19T12:10:17.445Z,30.05
2023-05-19T12:12:43.863Z,30.03
2023-05-19T12:15:10.291Z,30.03
2023-05-19T12:17:36.781Z,30.03
2023-05-19T12:20:03.254Z,30.06
2023-05-19T12:22:29.657Z,30.00
2023-05-19T12:24:56.092Z,30.03
2023-05-19T12:27:22.489Z,30.01
2023-05-19T12:29:48.884Z,30.00
2023-05-19T12:32:15.300Z,30.02
2023-05-19T12:34:41.716Z,29.95
2023-05-19T12:37:08.127Z,29.94
2023-05-19T12:39:34.595Z,30.00
2023-05-19T12:42:01.025Z,29.95
2023-05-19T12:44:27.416Z,29.94
2023-05-19T12:46:53.864Z,29.95
2023-05-19T12:49:20.282Z,29.96
2023-05-19T12:51:46.854Z,29.96
2023-05-19T12:54:13.324Z,29.94
2023-05-19T12:56:39.809Z,29.94
2023-05-19T12:59:06.258Z,29.91
2023-05-19T13:01:32.816Z,29.89
2023-05-19T13:03:59.446Z,29.92
2023-05-19T13:06:25.903Z,29.94
2023-05-19T13:08:52.305Z,29.97
2023-05-19T13:11:18.741Z,29.96
2023-05-19T13:13:45.289Z,29.89
2023-05-19T13:16:11.761Z,30.03
2023-05-19T13:18:38.338Z,30.18
2023-05-19T13:21:04.796Z,30.11
2023-05-19T13:23:31.216Z,30.10
2023-05-19T13:25:57.644Z,30.15
2023-05-19T13:28:24.098Z,30.11
2023-05-19T13:30:50.504Z,30.09
2023-05-19T13:33:16.921Z,30.02
2023-05-19T13:35:43.373Z,30.00
2023-05-19T13:38:10.452Z,29.99
2023-05-19T13:40:37.125Z,29.99
2023-05-19T13:43:03.637Z,29.99
2023-05-19T13:45:31.605Z,30.03
2023-05-19T13:47:58.247Z,29.98
2023-05-19T13:50:24.755Z,29.96
2023-05-19T13:52:51.211Z,29.97
2023-05-19T13:55:17.769Z,30.03
2023-05-19T13:57:44.380Z,29.98
2023-05-19T14:00:10.822Z,29.98
2023-05-19T14:02:37.269Z,30.02
2023-05-19T14:05:03.763Z,29.97
2023-05-19T14:07:30.177Z,30.01
2023-05-19T14:09:56.595Z,30.00
2023-05-19T14:12:27.809Z,30.03
2023-05-19T14:15:01.162Z,29.99
2023-05-19T14:17:27.642Z,30.00
2023-05-19T14:19:54.105Z,29.99
2023-05-19T14:22:20.523Z,29.97
2023-05-19T14:24:46.954Z,29.99
2023-05-19T14:27:13.356Z,29.97
2023-05-19T14:29:39.788Z,29.99
2023-05-19T14:32:06.298Z,29.92
2023-05-19T14:34:32.865Z,29.99
2023-05-19T14:36:59.292Z,29.96
2023-05-19T14:39:25.752Z,29.98
2023-05-19T14:41:52.263Z,29.96
2023-05-19T14:44:18.723Z,29.95
2023-05-19T14:46:45.214Z,29.96
2023-05-19T14:49:11.677Z,29.98
2023-05-19T14:51:38.109Z,29.92
2023-05-19T14:54:04.555Z,29.95
2023-05-19T14:56:30.944Z,29.97
2023-05-19T14:58:57.338Z,29.92
2023-05-19T15:01:23.820Z,29.95
2023-05-19T15:03:50.379Z,29.95
2023-05-19T15:06:16.821Z,29.88
2023-05-19T15:08:43.270Z,29.90
2023-05-19T15:11:09.671Z,29.89
2023-05-19T15:13:36.081Z,29.90
2023-05-19T15:16:16.303Z,29.86
2023-05-19T15:18:44.385Z,29.83
2023-05-19T15:21:10.905Z,29.81
2023-05-19T15:23:37.294Z,29.82
2023-05-19T15:26:03.718Z,30.03
2023-05-19T15:28:30.135Z,30.02
2023-05-19T15:30:56.569Z,29.95
2023-05-19T15:33:23.026Z,29.96
2023-05-19T15:35:49.593Z,29.96
2023-05-19T15:38:16.164Z,29.92
2023-05-19T15:40:42.568Z,29.94
2023-05-19T15:43:09.033Z,29.87
2023-05-19T15:45:35.840Z,29.88
2023-05-19T15:48:02.300Z,29.85
2023-05-19T15:50:28.746Z,29.82
2023-05-19T15:52:55.152Z,29.83
2023-05-19T15:55:21.590Z,29.79
2023-05-19T15:57:48.136Z,29.79
2023-05-19T16:00:14.535Z,29.75
2023-05-19T16:02:41.090Z,29.75
2023-05-19T16:05:07.536Z,29.74
2023-05-19T16:07:33.955Z,29.74
2023-05-19T16:10:00.457Z,29.70
2023-05-19T16:12:26.866Z,29.74
2023-05-19T16:14:53.275Z,29.76
2023-05-19T16:17:19.736Z,29.74
2023-05-19T16:19:46.142Z,29.74
2023-05-19T16:22:12.618Z,29.71
2023-05-19T16:24:39.051Z,29.70
2023-05-19T16:27:05.464Z,29.67
2023-05-19T16:29:31.840Z,29.67
2023-05-19T16:31:58.299Z,29.70
2023-05-19T16:34:24.717Z,29.70
2023-05-19T16:36:51.138Z,29.76
2023-05-19T16:39:17.629Z,29.78
2023-05-19T16:41:44.056Z,29.82
2023-05-19T16:44:10.610Z,29.85
2023-05-19T16:46:37.155Z,29.89
2023-05-19T16:49:03.567Z,29.89
2023-05-19T16:51:29.965Z,29.86
2023-05-19T16:53:56.398Z,29.89
2023-05-19T16:56:22.854Z,29.92
2023-05-19T16:58:49.447Z,29.94
2023-05-19T17:01:15.966Z,29.93
2023-05-19T17:03:42.434Z,29.94
2023-05-19T17:06:09.017Z,29.95
2023-05-19T17:08:35.493Z,29.92
2023-05-19T17:11:01.922Z,29.99
2023-05-19T17:13:28.362Z,29.98
2023-05-19T17:15:54.846Z,29.97
2023-05-19T17:18:21.252Z,29.99
2023-05-19T17:20:48.757Z,29.95
2023-05-19T17:23:15.292Z,29.97
2023-05-19T17:25:41.721Z,29.98
2023-05-19T17:28:08.183Z,29.99
2023-05-19T17:30:34.842Z,29.98
2023-05-19T17:33:01.456Z,29.98
2023-05-19T17:35:28.549Z,30.00
2023-05-19T17:37:55.205Z,30.00
2023-05-19T17:40:21.600Z,29.98
2023-05-19T17:42:48.008Z,30.00
2023-05-19T17:45:14.491Z,30.03
2023-05-19T17:47:41.355Z,30.00
2023-05-19T17:50:07.807Z,30.02
2023-05-19T17:52:34.252Z,30.01
2023-05-19T17:55:00.711Z,29.99
2023-05-19T17:57:27.147Z,30.02
2023-05-19T17:59:53.615Z,30.04
2023-05-19T18:02:20.224Z,30.07
2023-05-19T18:04:46.694Z,30.10
2023-05-19T18:07:13.083Z,30.15
2023-05-19T18:09:39.536Z,30.18
2023-05-19T18:12:05.942Z,30.17
2023-05-19T18:14:32.351Z,30.20
2023-05-19T18:16:58.789Z,30.24
2023-05-19T18:19:25.316Z,30.28
2023-05-19T18:21:51.876Z,30.29
2023-05-19T18:24:18.296Z,30.27
2023-05-19T18:26:44.744Z,30.33
2023-05-19T18:29:11.273Z,30.32
2023-05-19T18:31:37.921Z,30.31
2023-05-19T18:34:04.393Z,30.32
2023-05-19T18:36:30.793Z,30.34
2023-05-19T18:38:57.219Z,30.37
2023-05-19T18:41:23.950Z,30.34
2023-05-19T18:43:50.339Z,30.37
2023-05-19T18:46:16.838Z,30.39
2023-05-19T18:48:43.270Z,30.39
2023-05-19T18:51:09.705Z,30.42
2023-05-19T18:53:36.166Z,30.39
2023-05-19T18:56:02.603Z,30.41
2023-05-19T18:58:29.023Z,30.45
2023-05-19T19:00:55.495Z,30.42
2023-05-19T19:03:21.980Z,30.47
2023-05-19T19:05:48.418Z,30.44
2023-05-19T19:08:14.992Z,30.50
2023-05-19T19:10:41.417Z,30.48
2023-05-19T19:13:07.869Z,30.48
2023-05-19T19:15:34.319Z,30.48
2023-05-19T19:18:00.758Z,30.47
2023-05-19T19:20:27.190Z,30.51
2023-05-19T19:22:53.676Z,30.54
2023-05-19T19:25:21.893Z,30.50
2023-05-19T19:27:49.601Z,30.51
2023-05-19T19:30:16.081Z,30.50
2023-05-19T19:32:42.526Z,30.52
2023-05-19T19:35:08.976Z,30.54
2023-05-19T19:37:35.439Z,30.57
2023-05-19T19:40:01.886Z,30.60
2023-05-19T19:42:28.336Z,30.58
2023-05-19T19:44:54.799Z,30.60
2023-05-19T19:47:21.203Z,30.64
2023-05-19T19:49:47.650Z,30.62
2023-05-19T19:52:14.095Z,30.62
2023-05-19T19:54:40.508Z,30.63
2023-05-19T19:57:06.952Z,30.65
2023-05-19T19:59:33.385Z,30.66
2023-05-19T20:01:59.881Z,30.66
2023-05-19T20:04:26.416Z,30.68
2023-05-19T20:06:52.913Z,30.70
2023-05-19T20:09:19.317Z,30.70
2023-05-19T20:11:45.776Z,30.72
2023-05-19T20:14:12.215Z,30.71
2023-05-19T20:16:38.666Z,30.74
2023-05-19T20:19:06.683Z,30.71
2023-05-19T20:21:34.240Z,30.72
2023-05-19T20:24:00.674Z,30.69
2023-05-19T20:26:27.105Z,30.70
2023-05-19T20:28:53.582Z,30.66
2023-05-19T20:31:19.969Z,30.68
2023-05-19T20:33:46.402Z,30.70
2023-05-19T20:36:12.879Z,30.68
2023-05-19T20:38:39.274Z,30.71
2023-05-19T20:41:05.698Z,30.72
2023-05-19T20:43:32.144Z,30.71
2023-05-19T20:45:58.594Z,30.75
2023-05-19T20:48:25.069Z,30.73
2023-05-19T20:50:51.545Z,30.75
2023-05-19T20:53:17.966Z,30.71
2023-05-19T20:55:44.449Z,30.71
2023-05-19T20:58:10.858Z,30.71
2023-05-19T21:00:37.378Z,30.74
2023-05-19T21:03:03.987Z,30.71
2023-05-19T21:05:30.433Z,30.75
2023-05-19T21:07:57.209Z,30.74
2023-05-19T21:10:23.684Z,30.77
2023-05-19T21:12:50.132Z,30.79
2023-05-19T21:15:16.528Z,30.77
2023-05-19T21:17:42.991Z,30.77
2023-05-19T21:20:09.471Z,30.76
2023-05-19T21:22:35.975Z,30.77
2023-05-19T21:25:02.552Z,30.80
2023-05-19T21:27:28.975Z,30.79
2023-05-19T21:29:55.396Z,30.78
2023-05-19T21:32:21.839Z,30.76
2023-05-19T21:34:48.249Z,30.79
2023-05-19T21:37:14.662Z,30.80
2023-05-19T21:39:41.092Z,30.83
2023-05-19T21:42:07.526Z,30.83
2023-05-19T21:44:33.981Z,30.84
2023-05-19T21:47:00.451Z,30.84
2023-05-19T21:49:26.897Z,30.83
2023-05-19T21:51:53.297Z,30.87
2023-05-19T21:54:19.758Z,30.88
2023-05-19T21:56:46.157Z,30.88
2023-05-19T21:59:12.609Z,30.87
2023-05-19T22:01:39.052Z,30.86
2023-05-19T22:04:05.590Z,30.85
2023-05-19T22:06:32.072Z,30.89
2023-05-19T22:08:58.486Z,30.85
2023-05-19T22:11:24.936Z,30.86
2023-05-19T22:13:51.386Z,30.85
2023-05-19T22:16:17.844Z,30.87
2023-05-19T22:18:44.347Z,30.87
2023-05-19T22:21:10.795Z,30.86
2023-05-19T22:23:37.227Z,30.85
2023-05-19T22:26:03.687Z,30.85
2023-05-19T22:28:30.128Z,30.85
2023-05-19T22:30:56.577Z,30.85
2023-05-19T22:33:23.038Z,30.85
2023-05-19T22:35:49.457Z,30.83
2023-05-19T22:38:15.892Z,30.86
2023-05-19T22:40:42.347Z,30.85
2023-05-19T22:43:08.749Z,30.86
2023-05-19T22:45:35.540Z,30.87
2023-05-19T22:48:02.259Z,30.85
2023-05-19T22:50:28.677Z,30.86
2023-05-19T22:52:55.064Z,30.87
2023-05-19T22:55:21.531Z,30.86
2023-05-19T22:57:47.907Z,30.89
2023-05-19T23:00:14.305Z,30.88
2023-05-19T23:02:40.771Z,30.86
2023-05-19T23:05:07.183Z,30.86
2023-05-19T23:07:33.604Z,30.86
2023-05-19T23:10:00.080Z,30.88
2023-05-19T23:12:26.712Z,30.90
2023-05-19T23:14:53.149Z,30.87
2023-05-19T23:17:19.635Z,30.89
2023-05-19T23:19:46.080Z,30.91
2023-05-19T23:22:12.527Z,30.90
2023-05-19T23:24:38.983Z,30.91
2023-05-19T23:27:05.418Z,30.89
2023-05-19T23:29:31.825Z,30.87
2023-05-19T23:31:58.257Z,30.87
2023-05-19T23:34:24.700Z,30.88
2023-05-19T23:36:51.098Z,30.86
2023-05-19T23:39:17.546Z,30.87
2023-05-19T23:41:43.953Z,30.86
2023-05-19T23:44:10.350Z,30.87
2023-05-19T23:46:36.852Z,30.91
2023-05-19T23:49:03.322Z,30.87
2023-05-19T23:51:29.790Z,30.95
2023-05-19T23:53:56.258Z,30.92
2023-05-19T23:56:22.657Z,30.88
2023-05-19T23:58:49.076Z,30.90
